Time;durP1;ratioP1;P1;durP2;ratioP2;P2;SDS_P1;SDS_P2;PMS_P1;PMS_P2;Temp;Humidity;BMP_temperature;BMP_pressure;BME280_temperature;BME280_humidity;BME280_pressure;Samples;Min_cycle;Max_cycle;Signal;HPM_P1;HPM_P2
2021/10/26 00:01:05;;;;;;;;;9.25;9.25;;;;;13.92;70.62;101783.50;5056239;28;45293;-79
2021/10/26 00:03:31;;;;;;;;;7.00;7.00;;;;;13.89;70.67;101779.88;5038161;28;45616;-79
2021/10/26 00:05:57;;;;;;;;;8.25;7.00;;;;;13.89;70.99;101774.69;5055701;28;45396;-83
2021/10/26 00:08:22;;;;;;;;;9.25;7.50;;;;;13.87;71.00;101774.63;5058041;28;45320;-81
2021/10/26 00:10:48;;;;;;;;;7.75;7.25;;;;;13.86;71.04;101774.53;5057991;28;45489;-82
2021/10/26 00:13:14;;;;;;;;;7.25;7.25;;;;;13.82;70.80;101767.41;5064733;28;45249;-84
2021/10/26 00:15:40;;;;;;;;;8.75;8.00;;;;;13.82;70.39;101770.88;5058572;28;46371;-78
2021/10/26 00:18:06;;;;;;;;;8.00;7.00;;;;;13.82;70.72;101780.44;5070646;28;45701;-79
2021/10/26 00:20:31;;;;;;;;;8.00;7.00;;;;;13.74;70.89;101765.31;5066481;28;45273;-83
2021/10/26 00:23:01;;;;;;;;;8.00;8.00;;;;;13.80;70.89;101785.53;5058281;28;45278;-84
2021/10/26 00:25:27;;;;;;;;;8.00;8.00;;;;;13.79;70.81;101778.53;5059821;28;46179;-85
2021/10/26 00:27:52;;;;;;;;;8.00;5.50;;;;;13.71;70.53;101770.41;5056268;28;45410;-79
2021/10/26 00:30:18;;;;;;;;;8.00;6.50;;;;;13.64;70.61;101765.69;5054817;28;45466;-79
2021/10/26 00:32:44;;;;;;;;;9.00;7.00;;;;;13.74;70.85;101793.06;5055707;28;45426;-79
2021/10/26 00:35:10;;;;;;;;;6.75;6.00;;;;;13.71;70.70;101790.31;5055281;28;45437;-79
2021/10/26 00:37:37;;;;;;;;;9.25;8.00;;;;;13.67;70.65;101794.47;5054629;28;45534;-79
2021/10/26 00:40:08;;;;;;;;;8.50;8.00;;;;;13.63;70.84;101797.75;5058424;28;45765;-80
2021/10/26 00:42:33;;;;;;;;;9.00;6.50;;;;;13.61;70.86;101795.06;5058421;28;45348;-79
2021/10/26 00:44:59;;;;;;;;;6.00;6.00;;;;;13.61;70.74;101796.78;5057732;28;45438;-79
2021/10/26 00:47:25;;;;;;;;;7.00;7.00;;;;;13.58;70.84;101800.13;5057672;28;45924;-80
2021/10/26 00:49:51;;;;;;;;;8.75;6.50;;;;;13.55;70.72;101805.16;5059015;28;45711;-79
2021/10/26 00:52:17;;;;;;;;;7.00;6.00;;;;;13.52;70.72;101794.63;5058637;28;45257;-79
2021/10/26 00:54:43;;;;;;;;;10.50;7.00;;;;;13.40;70.79;101784.50;5058876;28;46706;-79
2021/10/26 00:57:08;;;;;;;;;5.75;5.75;;;;;13.50;70.84;101811.00;5058503;28;45297;-78
2021/10/26 00:59:34;;;;;;;;;7.00;6.00;;;;;13.47;70.48;101803.91;5058695;28;45427;-79
2021/10/26 01:02:00;;;;;;;;;7.25;6.25;;;;;13.44;70.53;101812.47;5058189;28;45509;-81
2021/10/26 01:04:25;;;;;;;;;6.00;6.00;;;;;13.33;70.73;101795.41;5058173;28;45874;-80
2021/10/26 01:06:51;;;;;;;;;4.50;4.50;;;;;13.41;70.53;101807.09;5059654;28;45308;-80
2021/10/26 01:09:18;;;;;;;;;5.00;4.00;;;;;13.31;70.37;101797.03;5041926;28;45363;-78
2021/10/26 01:11:43;;;;;;;;;6.25;6.00;;;;;13.37;70.47;101805.16;5061620;28;45657;-78
2021/10/26 01:14:10;;;;;;;;;8.00;6.00;;;;;13.39;70.45;101807.81;5062784;28;45487;-79
2021/10/26 01:16:35;;;;;;;;;5.25;5.25;;;;;13.34;70.75;101811.88;5059828;28;45398;-80
2021/10/26 01:19:01;;;;;;;;;7.50;5.25;;;;;13.32;70.38;101807.53;5057830;28;45290;-79
2021/10/26 01:21:27;;;;;;;;;8.00;7.50;;;;;13.29;70.50;101807.38;5057034;28;45582;-80
2021/10/26 01:23:53;;;;;;;;;4.00;4.00;;;;;13.16;70.24;101792.88;5058272;28;45346;-83
2021/10/26 01:26:19;;;;;;;;;5.75;5.75;;;;;13.25;70.67;101813.22;5057028;28;45298;-82
2021/10/26 01:28:44;;;;;;;;;6.00;5.50;;;;;13.20;70.89;101803.41;5058695;28;45244;-79
2021/10/26 01:31:10;;;;;;;;;8.00;6.00;;;;;13.22;70.69;101810.50;5058029;28;45454;-80
2021/10/26 01:33:35;;;;;;;;;3.75;3.00;;;;;13.20;70.85;101803.41;5056754;28;45909;-79
2021/10/26 01:36:01;;;;;;;;;4.75;4.75;;;;;13.18;70.41;101805.94;5057746;28;45404;-78
2021/10/26 01:38:27;;;;;;;;;5.00;5.00;;;;;13.24;70.71;101814.03;5039606;28;45611;-79
2021/10/26 01:40:53;;;;;;;;;5.50;4.75;;;;;13.13;70.38;101794.41;5057960;28;45635;-79
2021/10/26 01:43:19;;;;;;;;;5.25;5.00;;;;;13.23;70.27;101817.44;5057129;28;46418;-79
2021/10/26 01:45:45;;;;;;;;;4.25;4.25;;;;;13.16;70.65;101805.88;5057926;28;45388;-79
2021/10/26 01:48:11;;;;;;;;;6.00;5.00;;;;;13.25;70.15;101821.03;5056940;28;45328;-77
2021/10/26 01:50:37;;;;;;;;;4.00;4.00;;;;;13.27;70.48;101815.91;5056888;28;45561;-79
2021/10/26 01:53:03;;;;;;;;;6.00;5.00;;;;;13.27;70.10;101809.00;5056884;28;46301;-78
2021/10/26 01:55:29;;;;;;;;;5.00;5.00;;;;;13.18;70.31;101794.63;5057483;28;45878;-77
2021/10/26 01:57:54;;;;;;;;;5.50;3.50;;;;;13.31;70.41;101820.44;5058091;28;45368;-80
2021/10/26 02:00:21;;;;;;;;;5.00;5.00;;;;;13.21;70.24;101806.09;5057186;28;45469;-80
2021/10/26 02:02:50;;;;;;;;;4.50;4.00;;;;;13.31;70.06;101816.16;5057642;28;45244;-78
2021/10/26 02:05:17;;;;;;;;;5.00;4.00;;;;;13.23;69.77;101806.16;5057081;28;45785;-79
2021/10/26 02:07:43;;;;;;;;;6.00;5.00;;;;;13.26;70.03;101817.63;5057706;28;45709;-79
2021/10/26 02:10:10;;;;;;;;;3.50;3.50;;;;;13.24;70.00;101808.84;5057936;28;45333;-79
2021/10/26 02:12:37;;;;;;;;;3.50;2.75;;;;;13.21;70.01;101803.50;5056981;28;45331;-82
2021/10/26 02:15:04;;;;;;;;;3.75;3.75;;;;;13.18;69.88;101808.53;5056918;28;45351;-83
2021/10/26 02:17:30;;;;;;;;;4.75;2.00;;;;;13.08;70.01;101798.50;5056820;28;45536;-82
2021/10/26 02:19:56;;;;;;;;;4.00;3.00;;;;;13.02;70.05;101788.69;5056908;28;45616;-83
2021/10/26 02:22:21;;;;;;;;;4.50;3.00;;;;;13.11;69.89;101807.34;5056752;28;45337;-81
2021/10/26 02:24:47;;;;;;;;;4.00;2.50;;;;;13.05;69.92;101804.44;5057829;28;45311;-80
2021/10/26 02:27:13;;;;;;;;;2.00;2.00;;;;;12.95;69.74;101784.88;5040178;28;45905;-80
2021/10/26 02:29:39;;;;;;;;;2.25;2.25;;;;;13.01;69.99;101807.69;5057367;28;45212;-81
2021/10/26 02:32:05;;;;;;;;;3.25;3.25;;;;;13.04;69.84;101810.44;5057231;28;45323;-84
2021/10/26 02:34:31;;;;;;;;;2.75;2.00;;;;;12.95;69.95;101800.47;5057139;28;45193;-85
2021/10/26 02:36:57;;;;;;;;;1.75;1.75;;;;;13.00;69.89;101808.50;5058134;28;45216;-86
2021/10/26 02:39:23;;;;;;;;;3.00;2.25;;;;;13.00;69.91;101809.41;5058358;28;45327;-84
2021/10/26 02:41:48;;;;;;;;;3.00;1.25;;;;;12.94;69.67;101793.47;5058084;28;45426;-84
2021/10/26 02:44:14;;;;;;;;;1.00;1.00;;;;;12.92;69.91;101797.69;5060750;28;45376;-84
2021/10/26 02:46:40;;;;;;;;;2.50;2.50;;;;;12.91;70.11;101806.31;5060724;28;45335;-83
2021/10/26 02:49:05;;;;;;;;;0.50;0.00;;;;;12.89;70.01;101809.66;5061045;28;45595;-79
2021/10/26 02:51:31;;;;;;;;;1.00;1.00;;;;;12.95;69.93;101817.78;5056058;28;45875;-79
2021/10/26 02:53:57;;;;;;;;;4.25;2.75;;;;;12.90;69.77;101806.25;5056925;28;45336;-79
2021/10/26 02:56:23;;;;;;;;;2.25;2.25;;;;;12.83;69.89;101805.94;5056183;28;45301;-80
2021/10/26 02:58:48;;;;;;;;;3.00;1.75;;;;;12.92;69.83;101823.69;5056801;28;45388;-79
2021/10/26 03:01:15;;;;;;;;;2.00;1.75;;;;;12.93;69.88;101833.28;5055325;28;45381;-79
2021/10/26 03:03:40;;;;;;;;;2.00;2.00;;;;;12.93;70.18;101829.81;5055191;28;45614;-80
2021/10/26 03:06:06;;;;;;;;;2.00;2.00;;;;;12.91;69.83;101827.09;5055605;28;45462;-79
2021/10/26 03:08:32;;;;;;;;;2.00;1.50;;;;;12.92;69.78;101828.00;5055830;28;45594;-79
2021/10/26 03:10:58;;;;;;;;;1.00;1.00;;;;;12.87;69.84;101826.88;5056427;28;45387;-79
2021/10/26 03:13:24;;;;;;;;;3.00;2.00;;;;;12.90;70.03;101834.84;5038032;28;45376;-79
2021/10/26 03:15:49;;;;;;;;;2.25;2.00;;;;;12.88;70.05;101832.16;5056597;28;45349;-79
2021/10/26 03:18:15;;;;;;;;;3.00;1.75;;;;;12.89;69.87;101833.03;5056840;28;45429;-79
2021/10/26 03:20:41;;;;;;;;;4.50;2.25;;;;;12.88;69.91;101832.16;5055052;28;46038;-79
2021/10/26 03:23:08;;;;;;;;;5.00;1.00;;;;;12.83;69.99;101837.13;5056185;28;45344;-79
2021/10/26 03:25:33;;;;;;;;;3.00;2.00;;;;;12.84;70.29;101838.91;5056048;28;45430;-79
2021/10/26 03:28:00;;;;;;;;;1.00;1.00;;;;;12.76;69.92;101824.59;5055973;28;45242;-79
2021/10/26 03:30:25;;;;;;;;;3.00;2.00;;;;;12.79;70.27;101826.50;5055152;28;45567;-79
2021/10/26 03:32:52;;;;;;;;;1.75;1.50;;;;;12.80;70.33;101829.16;5054915;28;45379;-79
2021/10/26 03:35:18;;;;;;;;;1.50;1.00;;;;;12.78;70.42;101825.59;5055928;28;45446;-84
2021/10/26 03:37:44;;;;;;;;;1.25;1.00;;;;;12.68;70.38;101811.25;5035966;28;45287;-86
2021/10/26 03:40:11;;;;;;;;;2.75;2.75;;;;;12.78;70.37;101833.38;5058448;28;46316;-87
2021/10/26 03:42:38;;;;;;;;;3.75;3.75;;;;;12.79;70.19;101834.28;5053965;28;45274;-89
2021/10/26 03:45:05;;;;;;;;;3.00;2.50;;;;;12.55;70.23;101790.63;5053022;28;45352;-90
2021/10/26 03:47:30;;;;;;;;;2.00;1.25;;;;;12.83;69.96;101836.22;5038503;28;45362;-81
2021/10/26 03:49:56;;;;;;;;;3.75;1.75;;;;;12.83;70.25;101839.72;5055054;28;45826;-80
2021/10/26 03:52:22;;;;;;;;;2.00;2.00;;;;;12.83;70.16;101844.94;5054945;28;45448;-80
2021/10/26 03:54:49;;;;;;;;;2.00;2.00;;;;;12.76;70.36;101826.34;5055646;28;45413;-80
2021/10/26 03:57:15;;;;;;;;;3.00;3.00;;;;;12.72;70.42;101821.78;5055750;28;45448;-80
2021/10/26 03:59:41;;;;;;;;;3.50;2.75;;;;;12.77;70.48;101831.59;5055582;28;45357;-80
2021/10/26 04:02:10;;;;;;;;;3.50;3.50;;;;;12.77;69.99;101836.78;5055248;28;45835;-79
2021/10/26 04:04:36;;;;;;;;;5.00;3.25;;;;;12.71;70.01;101823.50;5034919;28;45579;-80
2021/10/26 04:07:03;;;;;;;;;4.50;3.00;;;;;12.81;70.21;101835.25;5056012;28;45533;-80
2021/10/26 04:09:45;;;;;;;;;3.50;3.00;;;;;12.91;69.90;101847.91;5055284;28;45402;-80
2021/10/26 04:12:23;;;;;;;;;3.00;3.00;;;;;12.85;69.96;101837.19;5058813;28;45767;-85
2021/10/26 04:14:49;;;;;;;;;2.00;2.00;;;;;12.96;69.79;101853.34;5040452;28;45374;-80
2021/10/26 04:17:15;;;;;;;;;3.50;3.00;;;;;12.96;69.55;101850.72;5056384;28;45388;-81
2021/10/26 04:19:41;;;;;;;;;3.75;3.75;;;;;12.97;69.85;101850.84;5058136;28;46451;-79
2021/10/26 04:22:10;;;;;;;;;3.50;3.50;;;;;13.00;69.56;101855.28;5059411;28;45339;-80
2021/10/26 04:24:36;;;;;;;;;4.75;4.75;;;;;13.03;69.36;101860.66;5058729;28;45378;-81
2021/10/26 04:27:01;;;;;;;;;6.50;5.00;;;;;12.95;69.50;101849.84;5059442;28;45627;-84
2021/10/26 04:29:27;;;;;;;;;5.75;5.75;;;;;12.97;69.55;101847.31;5058120;28;45282;-80
2021/10/26 04:31:53;;;;;;;;;5.50;3.25;;;;;12.96;69.43;101846.44;5058906;28;45556;-81
2021/10/26 04:34:19;;;;;;;;;5.25;4.75;;;;;13.06;69.01;101859.91;5058063;28;45314;-82
2021/10/26 04:36:45;;;;;;;;;6.75;5.00;;;;;13.05;68.94;101860.72;5059324;28;45525;-80
2021/10/26 04:39:10;;;;;;;;;7.25;4.50;;;;;12.98;68.99;101856.91;5059570;28;46514;-80
2021/10/26 04:41:36;;;;;;;;;4.50;4.00;;;;;13.00;69.07;101870.88;5057362;28;45430;-80
2021/10/26 04:44:03;;;;;;;;;4.25;4.25;;;;;12.98;69.09;101863.03;5057970;28;45750;-82
2021/10/26 04:46:33;;;;;;;;;4.50;3.25;;;;;12.98;68.97;101873.44;5058864;28;46636;-80
2021/10/26 04:48:59;;;;;;;;;6.00;6.00;;;;;12.96;69.04;101859.44;5059885;28;45347;-87
2021/10/26 04:51:25;;;;;;;;;7.25;5.00;;;;;12.95;69.22;101867.19;5063852;28;45677;-81
2021/10/26 04:53:50;;;;;;;;;5.50;4.00;;;;;12.87;69.12;101856.38;5065867;28;45458;-83
2021/10/26 04:56:16;;;;;;;;;3.00;3.00;;;;;12.96;69.54;101868.94;5065620;28;45542;-83
2021/10/26 04:58:41;;;;;;;;;2.25;2.25;;;;;12.90;69.43;101861.75;5060800;28;45311;-84
2021/10/26 05:01:07;;;;;;;;;1.75;1.25;;;;;12.94;69.90;101878.38;5058496;28;45470;-85
2021/10/26 05:03:33;;;;;;;;;4.00;2.75;;;;;12.94;69.80;101871.47;5058900;28;45680;-84
2021/10/26 05:05:58;;;;;;;;;4.00;2.00;;;;;12.91;69.77;101866.09;5040646;28;45485;-82
2021/10/26 05:08:25;;;;;;;;;3.00;3.00;;;;;12.86;69.89;101854.59;5059029;28;45363;-86
2021/10/26 05:10:50;;;;;;;;;3.50;3.50;;;;;12.92;69.48;101865.28;5060248;28;45396;-81
2021/10/26 05:13:16;;;;;;;;;4.50;4.50;;;;;12.97;69.71;101878.53;5058601;28;45431;-80
2021/10/26 05:15:42;;;;;;;;;2.00;2.00;;;;;12.91;69.67;101858.28;5058093;28;45548;-80
2021/10/26 05:18:11;;;;;;;;;3.50;3.25;;;;;12.90;69.69;101863.44;5058030;28;45395;-80
2021/10/26 05:20:38;;;;;;;;;5.25;2.00;;;;;12.95;69.87;101880.16;5056737;28;46500;-82
2021/10/26 05:23:05;;;;;;;;;3.50;3.25;;;;;12.97;69.77;101884.63;5056486;28;45506;-80
2021/10/26 05:25:31;;;;;;;;;5.50;3.00;;;;;12.95;69.95;101883.66;5058117;28;45496;-79
2021/10/26 05:27:57;;;;;;;;;3.00;3.00;;;;;12.95;69.53;101882.78;5057409;28;45435;-80
2021/10/26 05:30:23;;;;;;;;;4.25;3.00;;;;;12.95;69.63;101881.06;5064661;28;45444;-84
2021/10/26 05:32:48;;;;;;;;;4.00;4.00;;;;;12.90;69.62;101876.41;5059899;27;45451;-80
2021/10/26 05:35:14;;;;;;;;;9.00;8.25;;;;;12.94;69.14;101888.78;5058159;28;45411;-80
2021/10/26 05:37:40;;;;;;;;;6.00;6.00;;;;;12.95;68.91;101891.44;5057353;28;45829;-83
2021/10/26 05:40:06;;;;;;;;;9.75;7.25;;;;;12.93;68.81;101897.38;5063611;28;45412;-82
2021/10/26 05:42:33;;;;;;;;;8.25;7.25;;;;;12.87;68.77;101900.56;5058989;28;45486;-82
2021/10/26 05:44:58;;;;;;;;;7.25;6.25;;;;;12.89;68.60;101901.53;5058212;28;45252;-81
2021/10/26 05:47:24;;;;;;;;;9.75;8.75;;;;;12.89;68.65;101903.22;5056903;28;45979;-81
2021/10/26 05:49:50;;;;;;;;;8.25;7.25;;;;;12.84;68.66;101898.69;5057404;28;45283;-82
2021/10/26 05:52:16;;;;;;;;;7.75;6.25;;;;;12.84;68.73;101893.50;5061997;28;45336;-80
2021/10/26 05:54:41;;;;;;;;;8.75;6.50;;;;;12.75;68.59;101881.72;5058370;28;45585;-79
2021/10/26 05:57:07;;;;;;;;;8.00;6.50;;;;;12.85;68.61;101910.84;5059579;28;45265;-86
2021/10/26 05:59:33;;;;;;;;;6.75;5.25;;;;;12.81;69.26;101911.53;5061336;28;45478;-88
2021/10/26 06:01:58;;;;;;;;;4.00;4.00;;;;;12.77;68.85;101906.06;5045174;28;45402;-85
2021/10/26 06:04:24;;;;;;;;;4.75;4.75;;;;;12.73;68.35;101907.63;5039986;28;45661;-82
2021/10/26 06:06:50;;;;;;;;;6.75;4.00;;;;;12.76;68.45;101912.09;5057908;28;45556;-80
2021/10/26 06:09:17;;;;;;;;;3.25;3.25;;;;;12.72;68.72;101915.31;5053051;28;46008;-81
2021/10/26 06:11:46;;;;;;;;;5.00;4.75;;;;;12.75;68.60;101931.09;5054982;28;45492;-80
2021/10/26 06:14:12;;;;;;;;;5.00;4.50;;;;;12.72;68.35;101930.91;5055253;28;45510;-80
2021/10/26 06:16:39;;;;;;;;;5.00;5.00;;;;;12.62;68.66;101925.22;5054876;28;46989;-82
2021/10/26 06:19:05;;;;;;;;;7.25;6.00;;;;;12.55;68.66;101920.50;5057585;28;45648;-85
2021/10/26 06:21:32;;;;;;;;;5.25;5.00;;;;;12.65;68.85;101942.66;5058787;28;45169;-86
2021/10/26 06:23:59;;;;;;;;;6.50;6.00;;;;;12.63;68.30;101936.53;5060291;28;45443;-83
2021/10/26 06:26:26;;;;;;;;;7.75;6.50;;;;;12.65;68.16;101946.19;5064237;28;46077;-85
2021/10/26 06:28:51;;;;;;;;;9.75;9.50;;;;;12.57;68.13;101931.88;5060844;28;45734;-85
2021/10/26 06:31:18;;;;;;;;;7.50;6.00;;;;;12.59;68.29;101945.81;5058806;28;45687;-90
2021/10/26 06:33:43;;;;;;;;;5.25;5.00;;;;;12.61;68.45;101949.41;5056806;28;45569;-83
2021/10/26 06:36:10;;;;;;;;;12.50;8.25;;;;;12.53;68.11;101927.31;5055850;28;45403;-86
2021/10/26 06:38:35;;;;;;;;;8.75;8.75;;;;;12.52;68.51;101929.03;5057520;28;45823;-85
2021/10/26 06:41:03;;;;;;;;;8.00;8.00;;;;;12.62;68.08;101947.72;5058147;28;45387;-88
2021/10/26 06:43:29;;;;;;;;;9.00;9.00;;;;;12.57;68.04;101943.97;5040320;28;45490;-86
2021/10/26 06:45:54;;;;;;;;;10.75;9.50;;;;;12.62;68.42;101950.31;5057284;28;45244;-85
2021/10/26 06:48:22;;;;;;;;;9.25;8.00;;;;;12.55;68.05;101943.88;5057400;28;45346;-85
2021/10/26 06:50:48;;;;;;;;;8.00;7.75;;;;;12.72;67.88;101972.47;5039842;28;45423;-86
2021/10/26 06:53:14;;;;;;;;;9.25;9.25;;;;;12.48;67.94;101949.53;5058719;28;45330;-86
2021/10/26 06:55:40;;;;;;;;;8.25;7.75;;;;;12.62;68.03;101977.19;5057459;28;46255;-86
2021/10/26 06:58:05;;;;;;;;;9.75;8.25;;;;;12.61;68.02;101990.97;5039721;28;45347;-86
2021/10/26 07:00:31;;;;;;;;;11.00;9.75;;;;;12.68;68.19;101995.72;5039966;28;45314;-86
2021/10/26 07:02:57;;;;;;;;;9.50;9.00;;;;;12.52;67.86;101960.22;5060063;28;45339;-87
2021/10/26 07:05:25;;;;;;;;;12.50;10.25;;;;;12.37;67.97;101934.25;5041213;28;46780;-87
2021/10/26 07:07:51;;;;;;;;;8.75;8.00;;;;;12.59;67.81;101986.50;5060377;28;45691;-84
2021/10/26 07:10:19;;;;;;;;;10.25;9.25;;;;;12.57;67.74;101981.25;5058408;28;45269;-87
2021/10/26 07:12:45;;;;;;;;;8.75;7.75;;;;;12.58;68.04;102018.50;5057078;28;45425;-86
2021/10/26 07:15:12;;;;;;;;;10.00;9.00;;;;;12.55;68.29;102021.81;5074315;28;46026;-86
2021/10/26 07:17:39;;;;;;;;;7.75;7.75;;;;;12.58;68.21;102028.88;5071255;28;45291;-86
2021/10/26 07:20:08;;;;;;;;;9.00;8.00;;;;;12.48;67.88;102006.69;5053212;28;45391;-88
2021/10/26 07:22:35;;;;;;;;;12.00;9.00;;;;;12.62;67.94;102029.13;5064783;28;45556;-85
2021/10/26 07:25:06;;;;;;;;;8.00;8.00;;;;;12.63;68.19;102024.84;5061144;28;46263;-87
2021/10/26 07:27:32;;;;;;;;;12.75;11.75;;;;;12.66;68.05;102025.00;5058378;28;45323;-84
2021/10/26 07:29:57;;;;;;;;;9.00;8.00;;;;;12.62;67.79;102030.88;5057879;28;45333;-86
2021/10/26 07:32:23;;;;;;;;;11.25;8.25;;;;;12.70;68.01;102053.84;5039436;28;45453;-84
2021/10/26 07:34:49;;;;;;;;;10.25;10.25;;;;;12.64;67.69;102044.81;5056912;28;45513;-84
2021/10/26 07:37:20;;;;;;;;;11.50;8.00;;;;;12.69;67.86;102054.66;5057146;28;45464;-85
2021/10/26 07:39:47;;;;;;;;;8.00;6.50;;;;;12.53;67.82;102033.81;5058164;28;45233;-86
2021/10/26 07:42:14;;;;;;;;;12.75;9.00;;;;;12.52;67.97;102030.34;5042657;28;45608;-84
2021/10/26 07:44:39;;;;;;;;;8.00;7.75;;;;;12.65;68.03;102042.31;5039321;28;46969;-84
2021/10/26 07:47:05;;;;;;;;;7.25;7.25;;;;;12.73;68.09;102049.63;5055841;28;45324;-84
2021/10/26 07:49:32;;;;;;;;;11.75;9.25;;;;;12.72;68.09;102042.66;5038209;28;45355;-84
2021/10/26 07:51:58;;;;;;;;;12.25;12.25;;;;;12.89;68.76;102072.19;5056668;28;45543;-83
2021/10/26 07:54:25;;;;;;;;;11.75;10.50;;;;;12.87;68.47;102060.78;5059100;28;46276;-84
2021/10/26 07:56:51;;;;;;;;;9.50;9.50;;;;;12.78;68.29;102046.47;5044501;28;45837;-86
2021/10/26 07:59:17;;;;;;;;;11.50;10.25;;;;;12.96;68.09;102080.41;5058373;28;45474;-85
2021/10/26 08:01:45;;;;;;;;;14.00;11.00;;;;;13.06;68.45;102089.63;5040134;28;45241;-86
2021/10/26 08:04:11;;;;;;;;;13.25;9.75;;;;;12.86;68.09;102049.50;5038625;28;47973;-87
2021/10/26 08:06:38;;;;;;;;;11.50;9.75;;;;;13.08;67.98;102082.78;5056007;28;45524;-85
2021/10/26 08:09:04;;;;;;;;;13.25;10.00;;;;;13.09;68.28;102074.16;5056420;28;45350;-84
2021/10/26 08:11:31;;;;;;;;;10.00;9.00;;;;;13.14;68.21;102066.63;5058024;28;45345;-85
2021/10/26 08:13:57;;;;;;;;;9.50;8.25;;;;;13.16;68.33;102065.00;5040292;28;46928;-85
2021/10/26 08:16:23;;;;;;;;;11.50;8.00;;;;;13.09;68.29;102042.09;5049008;28;45392;-85
2021/10/26 08:18:49;;;;;;;;;14.75;12.00;;;;;13.23;67.84;102067.09;5074963;28;45300;-85
2021/10/26 08:21:15;;;;;;;;;10.25;10.00;;;;;13.30;67.81;102065.75;5061306;28;45326;-86
2021/10/26 08:23:44;;;;;;;;;11.50;9.75;;;;;13.30;68.18;102050.13;5038983;28;46749;-86
2021/10/26 08:26:19;;;;;;;;;9.75;9.00;;;;;13.40;68.00;102051.56;5056909;28;45403;-86
2021/10/26 08:28:48;;;;;;;;;12.00;10.75;;;;;13.52;67.98;102052.22;5057211;28;45225;-86
2021/10/26 08:31:20;;;;;;;;;14.25;10.00;;;;;13.58;67.96;102057.72;5038745;28;45590;-86
2021/10/26 08:36:31;;;;;;;;;12.00;11.00;;;;;13.61;67.85;102051.78;5056391;28;45197;-86
2021/10/26 08:38:58;;;;;;;;;14.50;12.50;;;;;13.66;67.92;102042.53;5044755;28;45193;-87
2021/10/26 08:41:26;;;;;;;;;13.25;12.00;;;;;13.69;67.81;102042.69;5045163;28;45367;-87
2021/10/26 08:43:52;;;;;;;;;10.75;10.25;;;;;13.62;67.84;102019.75;5039637;28;46845;-86
2021/10/26 08:46:18;;;;;;;;;18.25;10.75;;;;;13.80;67.89;102053.66;5056568;28;45745;-85
2021/10/26 08:48:50;;;;;;;;;8.50;6.50;;;;;13.85;67.71;102070.41;5038308;28;45334;-86
2021/10/26 08:51:16;;;;;;;;;14.50;11.25;;;;;13.94;67.36;102075.16;5056729;28;45320;-85
2021/10/26 08:53:44;;;;;;;;;14.00;14.00;;;;;13.96;67.58;102064.84;5036869;28;47081;-86
2021/10/26 08:56:10;;;;;;;;;17.25;14.50;;;;;13.82;67.85;102044.22;5037741;28;45703;-85
2021/10/26 08:58:35;;;;;;;;;14.00;14.00;;;;;13.83;67.64;102039.88;5037865;28;45312;-85
2021/10/26 09:01:03;;;;;;;;;14.75;13.50;;;;;13.96;67.62;102054.44;5040944;28;45345;-86
2021/10/26 09:03:35;;;;;;;;;14.50;13.00;;;;;14.01;67.42;102056.47;5041012;28;46852;-85
2021/10/26 09:06:02;;;;;;;;;12.75;11.50;;;;;13.95;66.63;102047.44;5040445;28;45334;-87
2021/10/26 09:08:28;;;;;;;;;14.25;10.00;;;;;14.00;67.60;102065.09;5058814;28;45408;-85
2021/10/26 09:11:03;;;;;;;;;9.00;8.75;;;;;13.91;67.42;102059.41;5059285;28;45327;-86
2021/10/26 09:19:14;;;;;;;;;13.25;11.75;;;;;14.03;67.85;102077.38;5067411;28;45224;-86
2021/10/26 09:21:41;;;;;;;;;12.00;10.00;;;;;14.03;67.44;102070.47;5060373;28;45485;-87
2021/10/26 09:24:10;;;;;;;;;12.50;10.25;;;;;13.73;67.48;102023.78;5041414;28;46720;-86
2021/10/26 09:26:50;;;;;;;;;12.75;10.00;;;;;14.02;67.71;102065.16;5040713;28;45789;-86
2021/10/26 09:29:18;;;;;;;;;12.75;12.00;;;;;14.00;67.07;102064.19;5059819;28;45396;-85
2021/10/26 09:31:44;;;;;;;;;9.00;8.00;;;;;13.92;67.18;102054.28;5063023;28;45457;-85
2021/10/26 09:34:16;;;;;;;;;12.25;9.75;;;;;13.99;67.11;102057.19;5041578;28;46658;-85
2021/10/26 09:36:45;;;;;;;;;10.25;8.00;;;;;14.05;66.87;102052.31;5040760;28;45762;-85
2021/10/26 09:39:14;;;;;;;;;11.25;9.50;;;;;14.21;66.49;102051.34;5059227;28;45420;-85
2021/10/26 09:41:54;;;;;;;;;8.00;7.00;;;;;14.35;65.72;102062.47;5042513;28;45621;-86
2021/10/26 09:44:25;;;;;;;;;6.00;5.75;;;;;14.34;65.79;102048.56;5041919;28;47627;-85
2021/10/26 09:46:58;;;;;;;;;8.75;6.75;;;;;14.36;64.89;102046.00;5040696;28;45819;-86
2021/10/26 09:49:25;;;;;;;;;3.25;3.00;;;;;14.39;64.83;102044.44;5040298;28;45269;-86
2021/10/26 09:52:09;;;;;;;;;9.00;8.00;;;;;14.52;65.37;102055.47;5059859;28;45359;-86
2021/10/26 09:54:35;;;;;;;;;7.00;7.00;;;;;14.54;64.45;102057.31;5060625;28;45495;-85
2021/10/26 09:57:03;;;;;;;;;9.25;9.25;;;;;14.66;64.58;102064.88;5065567;28;45255;-86
2021/10/26 09:59:29;;;;;;;;;5.00;5.00;;;;;14.71;64.23;102057.28;5041554;28;45327;-86
2021/10/26 10:01:55;;;;;;;;;9.00;9.00;;;;;14.69;64.60;102053.72;5059081;28;45483;-85
2021/10/26 10:04:31;;;;;;;;;6.50;5.00;;;;;14.90;63.80;102074.69;5039638;28;46965;-86
2021/10/26 10:06:59;;;;;;;;;6.25;6.00;;;;;14.78;63.69;102043.72;5057806;28;45394;-84
2021/10/26 10:09:24;;;;;;;;;4.25;4.25;;;;;14.92;63.92;102065.22;5039408;28;45280;-83
2021/10/26 10:12:07;;;;;;;;;6.25;5.00;;;;;14.91;63.63;102057.34;5058136;28;45363;-85
2021/10/26 10:14:45;;;;;;;;;7.75;7.75;;;;;15.03;63.81;102073.56;5057638;28;45847;-85
2021/10/26 10:17:14;;;;;;;;;8.00;7.25;;;;;15.08;64.16;102079.88;5058354;28;45266;-82
2021/10/26 10:19:40;;;;;;;;;7.25;7.00;;;;;15.08;63.93;102079.00;5057473;28;45312;-82
2021/10/26 10:22:08;;;;;;;;;8.75;6.75;;;;;15.02;64.04;102071.78;5057746;28;45552;-82
2021/10/26 10:24:41;;;;;;;;;10.25;6.25;;;;;15.05;63.63;102079.75;5057387;28;45742;-81
2021/10/26 10:27:07;;;;;;;;;6.75;6.50;;;;;14.92;64.22;102065.22;5057568;28;45273;-82
2021/10/26 10:29:35;;;;;;;;;5.25;4.00;;;;;14.94;64.65;102089.66;5057299;28;45266;-84
2021/10/26 10:32:02;;;;;;;;;6.00;6.00;;;;;14.96;64.74;102089.72;5058104;28;45534;-81
2021/10/26 10:34:29;;;;;;;;;8.00;6.00;;;;;14.96;64.83;102081.91;5059125;28;46344;-80
2021/10/26 10:36:58;;;;;;;;;5.75;5.50;;;;;15.01;64.56;102083.03;5065864;28;45743;-82
2021/10/26 10:39:32;;;;;;;;;6.75;4.50;;;;;15.14;64.88;102093.22;5061557;28;45356;-81
2021/10/26 10:42:22;;;;;;;;;7.00;5.25;;;;;15.19;64.42;102083.00;5058507;28;45277;-82
2021/10/26 10:44:50;;;;;;;;;6.00;5.00;;;;;15.31;64.25;102093.09;5058201;28;45607;-81
2021/10/26 10:47:41;;;;;;;;;6.50;5.00;;;;;15.29;64.19;102082.59;5059024;28;45382;-82
2021/10/26 10:50:33;;;;;;;;;5.75;5.00;;;;;15.34;63.98;102077.59;5057776;28;45508;-83
2021/10/26 10:53:15;;;;;;;;;6.25;6.25;;;;;15.41;63.83;102079.66;5057515;28;45378;-85
2021/10/26 10:55:44;;;;;;;;;7.00;5.75;;;;;15.51;63.52;102090.50;5056826;28;45317;-81
2021/10/26 10:58:23;;;;;;;;;7.75;6.00;;;;;15.56;63.75;102089.88;5057033;28;45350;-81
2021/10/26 11:00:50;;;;;;;;;5.75;5.00;;;;;15.56;63.54;102095.09;5057519;28;45280;-82
2021/10/26 11:03:31;;;;;;;;;13.00;6.75;;;;;15.54;63.55;102091.56;5058086;28;45503;-83
2021/10/26 11:05:57;;;;;;;;;7.50;7.00;;;;;15.55;63.18;102077.66;5057418;28;45412;-86
2021/10/26 11:08:42;;;;;;;;;8.00;8.00;;;;;15.67;63.21;102077.31;5038762;28;45878;-85
2021/10/26 11:11:08;;;;;;;;;10.00;9.00;;;;;15.57;62.75;102069.91;5057154;28;45354;-84
2021/10/26 11:13:37;;;;;;;;;7.00;7.00;;;;;15.71;62.78;102080.94;5039032;28;45424;-84
2021/10/26 11:16:08;;;;;;;;;11.75;8.00;;;;;15.74;63.16;102083.72;5057298;28;46720;-85
2021/10/26 11:18:44;;;;;;;;;7.00;6.50;;;;;15.73;62.96;102082.78;5058295;28;45369;-87
2021/10/26 11:21:30;;;;;;;;;10.00;8.75;;;;;15.62;63.12;102045.78;5063279;28;45323;-86
2021/10/26 11:23:59;;;;;;;;;9.75;8.00;;;;;15.78;62.79;102051.66;5042333;28;45663;-86
2021/10/26 11:26:42;;;;;;;;;16.00;13.75;;;;;15.71;63.04;102036.56;5040878;28;47040;-87
2021/10/26 11:29:13;;;;;;;;;32.25;22.75;;;;;15.69;63.14;102023.47;5058368;28;45885;-87
2021/10/26 11:31:44;;;;;;;;;5.25;4.00;;;;;15.82;62.60;102048.38;5040934;28;45367;-87